Time;durP1;ratioP1;P1;durP2;ratioP2;P2;SDS_P1;SDS_P2;PMS_P1;PMS_P2;Temp;Humidity;BMP_temperature;BMP_pressure;BME280_temperature;BME280_humidity;BME280_pressure;Samples;Min_cycle;Max_cycle;Signal;HPM_P1;HPM_P2
2023/06/22 00:02:43;;;;;;;12.60;8.77;;;21.40;99.90;;;;;;5029672;28;20496;-70
2023/06/22 00:05:29;;;;;;;17.97;8.33;;;21.40;99.90;;;;;;5028971;28;21008;-70
2023/06/22 00:08:15;;;;;;;13.70;6.87;;;21.30;99.90;;;;;;5025864;28;20830;-71
2023/06/22 00:11:00;;;;;;;14.97;7.90;;;21.20;99.90;;;;;;5027472;28;20663;-71
2023/06/22 00:13:47;;;;;;;11.27;7.50;;;21.20;99.90;;;;;;5022499;28;20464;-71
2023/06/22 00:16:34;;;;;;;14.27;7.43;;;21.20;99.90;;;;;;5022680;28;20448;-70
2023/06/22 00:19:19;;;;;;;8.97;7.37;;;21.30;99.90;;;;;;5019736;28;21102;-71
2023/06/22 00:22:05;;;;;;;8.50;7.43;;;21.40;99.90;;;;;;5024628;28;20534;-71
2023/06/22 00:24:50;;;;;;;12.37;7.97;;;21.40;99.90;;;;;;5067718;22;20462;-76
2023/06/22 00:27:36;;;;;;;9.10;7.10;;;21.40;99.90;;;;;;5048921;28;20527;-76
2023/06/22 00:30:21;;;;;;;9.73;8.33;;;21.30;99.90;;;;;;5043921;28;20464;-76
2023/06/22 00:33:08;;;;;;;10.80;7.30;;;21.30;99.90;;;;;;5046403;28;20435;-75
2023/06/22 00:35:54;;;;;;;10.23;7.77;;;21.20;99.90;;;;;;5043012;28;20419;-75
2023/06/22 00:38:40;;;;;;;16.47;7.47;;;21.10;99.90;;;;;;5045211;28;20418;-75
2023/06/22 00:41:28;;;;;;;9.43;7.60;;;21.00;99.90;;;;;;5047789;28;20464;-75
2023/06/22 00:44:13;;;;;;;9.30;6.80;;;20.90;99.90;;;;;;5047990;28;20472;-76
2023/06/22 00:47:00;;;;;;;8.30;7.40;;;20.80;99.90;;;;;;5049336;28;20522;-73
2023/06/22 00:49:48;;;;;;;8.67;6.47;;;20.90;99.90;;;;;;5046200;28;20586;-74
2023/06/22 00:52:35;;;;;;;10.37;6.70;;;20.90;99.90;;;;;;5050647;28;20419;-76
2023/06/22 00:55:21;;;;;;;10.90;6.07;;;20.90;99.90;;;;;;5049825;28;20464;-76
2023/06/22 00:58:10;;;;;;;10.80;6.87;;;21.00;99.90;;;;;;5048556;28;20575;-76
2023/06/22 01:00:55;;;;;;;11.63;7.50;;;21.50;99.90;;;;;;5049129;28;20460;-74
2023/06/22 01:03:41;;;;;;;10.30;8.33;;;21.90;99.90;;;;;;5048340;28;20517;-75
2023/06/22 01:06:37;;;;;;;10.10;8.20;;;22.20;99.90;;;;;;5054477;28;20439;-75
2023/06/22 01:09:31;;;;;;;16.20;10.20;;;22.30;99.90;;;;;;5043773;28;20451;-76
2023/06/22 01:12:19;;;;;;;16.30;9.90;;;22.40;99.90;;;;;;5049591;28;20444;-76
2023/06/22 01:15:11;;;;;;;13.90;9.10;;;22.50;99.90;;;;;;5043781;28;20553;-74
2023/06/22 01:17:58;;;;;;;19.23;11.27;;;22.60;99.90;;;;;;5049506;28;20450;-75
2023/06/22 01:20:44;;;;;;;14.30;9.97;;;22.50;99.90;;;;;;5043722;28;21070;-76
2023/06/22 01:23:49;;;;;;;12.00;9.63;;;22.40;99.90;;;;;;5045984;28;21464;-75
2023/06/22 01:26:42;;;;;;;16.23;10.23;;;22.30;99.90;;;;;;5048323;28;20956;-75
2023/06/22 01:29:31;;;;;;;12.33;10.07;;;22.30;99.90;;;;;;5051405;28;20578;-76
2023/06/22 01:32:17;;;;;;;12.23;8.80;;;22.20;99.90;;;;;;5043188;28;20576;-74
2023/06/22 01:35:06;;;;;;;10.70;9.37;;;22.10;99.90;;;;;;5047397;28;20480;-74
2023/06/22 01:37:51;;;;;;;14.07;9.90;;;21.90;99.90;;;;;;5052272;28;20485;-75
2023/06/22 01:40:38;;;;;;;11.80;10.37;;;21.80;99.90;;;;;;5043562;28;20443;-75
2023/06/22 01:43:26;;;;;;;12.53;10.33;;;21.70;99.90;;;;;;5051153;28;20454;-75
2023/06/22 01:46:13;;;;;;;12.80;10.63;;;21.50;99.90;;;;;;5045183;28;20451;-75
2023/06/22 01:48:58;;;;;;;10.20;9.20;;;21.40;99.90;;;;;;5049672;28;20447;-75
2023/06/22 01:51:44;;;;;;;13.50;10.20;;;21.40;99.90;;;;;;5049324;28;20448;-75
2023/06/22 01:54:29;;;;;;;13.70;10.10;;;21.20;99.90;;;;;;5048849;28;20467;-75
2023/06/22 01:57:15;;;;;;;11.40;10.27;;;21.20;99.90;;;;;;5044896;28;20448;-75
2023/06/22 02:00:03;;;;;;;10.90;9.80;;;21.10;99.90;;;;;;5048273;28;20419;-73
2023/06/22 02:02:55;;;;;;;12.50;10.17;;;21.00;99.90;;;;;;5051504;28;20494;-74
2023/06/22 02:05:57;;;;;;;11.73;10.57;;;21.00;99.90;;;;;;5049988;28;20968;-76
2023/06/22 02:08:48;;;;;;;11.13;9.93;;;20.90;99.90;;;;;;5052897;28;20521;-76
2023/06/22 02:11:35;;;;;;;10.90;9.80;;;21.00;99.90;;;;;;5045127;28;20506;-74
2023/06/22 02:14:21;;;;;;;12.20;11.00;;;20.90;99.90;;;;;;5047101;28;21035;-76
2023/06/22 02:17:08;;;;;;;11.23;10.13;;;20.80;99.90;;;;;;5046780;28;21019;-76
2023/06/22 02:19:55;;;;;;;12.70;11.03;;;20.90;99.90;;;;;;5047649;28;20426;-74
2023/06/22 02:22:41;;;;;;;13.60;9.77;;;20.80;99.90;;;;;;5044182;28;20515;-73
2023/06/22 02:25:26;;;;;;;12.90;9.40;;;20.80;99.90;;;;;;5053384;28;20464;-73
2023/06/22 02:28:12;;;;;;;11.20;9.87;;;20.80;99.90;;;;;;5050808;28;20976;-75
2023/06/22 02:30:57;;;;;;;12.50;10.03;;;20.80;99.90;;;;;;5050149;28;20418;-76
2023/06/22 02:33:43;;;;;;;14.17;10.20;;;20.90;99.90;;;;;;5052839;28;20539;-75
2023/06/22 02:36:30;;;;;;;10.87;9.77;;;21.00;99.90;;;;;;5046954;28;20511;-75
2023/06/22 02:39:16;;;;;;;12.17;10.50;;;20.90;99.90;;;;;;5049330;28;21054;-76
2023/06/22 02:42:01;;;;;;;12.87;10.37;;;20.90;99.90;;;;;;5051432;28;20794;-75
2023/06/22 02:44:46;;;;;;;13.50;10.60;;;20.80;99.90;;;;;;5052642;28;21432;-76
2023/06/22 02:47:32;;;;;;;10.97;9.87;;;20.70;99.90;;;;;;5054545;28;20455;-76
2023/06/22 02:50:18;;;;;;;10.77;9.60;;;20.60;99.90;;;;;;5052819;28;20597;-73
2023/06/22 02:53:05;;;;;;;10.87;9.77;;;20.40;99.90;;;;;;5050438;28;20455;-75
2023/06/22 02:55:50;;;;;;;13.00;10.70;;;20.40;99.90;;;;;;5051338;28;20419;-75
2023/06/22 02:58:39;;;;;;;20.93;11.33;;;20.40;99.90;;;;;;5055815;28;21043;-75
2023/06/22 03:01:24;;;;;;;13.90;10.80;;;20.40;99.90;;;;;;5052663;28;20448;-75
2023/06/22 03:04:10;;;;;;;11.30;10.10;;;20.50;99.90;;;;;;5048065;28;20488;-75
2023/06/22 03:06:56;;;;;;;10.70;9.60;;;20.60;99.90;;;;;;5049602;28;20444;-75
2023/06/22 03:09:43;;;;;;;10.60;9.60;;;20.70;99.90;;;;;;5054517;28;20813;-72
2023/06/22 03:12:28;;;;;;;10.40;9.40;;;20.70;99.90;;;;;;5047907;28;20452;-75
2023/06/22 03:15:14;;;;;;;10.80;9.70;;;20.70;99.90;;;;;;5047313;28;20467;-75
2023/06/22 03:17:59;;;;;;;10.17;9.13;;;20.70;99.90;;;;;;5055227;28;20983;-75
2023/06/22 03:20:45;;;;;;;10.20;9.20;;;20.60;99.90;;;;;;5045335;28;20490;-72
2023/06/22 03:23:31;;;;;;;13.40;10.53;;;20.50;99.90;;;;;;5054242;28;20537;-75
2023/06/22 03:26:19;;;;;;;9.63;8.73;;;20.70;99.90;;;;;;5051013;28;20535;-75
2023/06/22 03:29:04;;;;;;;10.40;9.47;;;20.60;99.90;;;;;;5051672;28;20451;-75
2023/06/22 03:31:50;;;;;;;11.60;9.83;;;20.50;99.90;;;;;;5041831;28;20467;-76
2023/06/22 03:34:36;;;;;;;10.83;8.60;;;20.50;99.90;;;;;;5050159;28;20479;-76
2023/06/22 03:37:21;;;;;;;11.70;8.70;;;20.40;99.90;;;;;;5049546;28;20601;-76
2023/06/22 03:40:08;;;;;;;13.07;8.60;;;20.50;99.90;;;;;;5050765;28;20530;-75
2023/06/22 03:42:55;;;;;;;11.23;9.70;;;20.40;99.90;;;;;;5056913;28;20421;-74
2023/06/22 03:45:41;;;;;;;10.50;9.13;;;20.30;99.90;;;;;;5049353;28;20526;-75
2023/06/22 03:48:26;;;;;;;12.00;9.60;;;20.30;99.90;;;;;;5047168;28;20468;-74
2023/06/22 03:51:12;;;;;;;10.53;9.53;;;20.20;99.90;;;;;;5048966;28;20820;-75
2023/06/22 03:53:57;;;;;;;11.77;10.03;;;20.30;99.90;;;;;;5052985;28;20589;-75
2023/06/22 03:56:43;;;;;;;10.30;9.30;;;20.20;99.90;;;;;;5052203;28;20451;-75
2023/06/22 03:59:30;;;;;;;13.90;9.60;;;20.20;99.90;;;;;;5059606;28;20448;-75
2023/06/22 04:02:15;;;;;;;10.00;8.80;;;20.20;99.90;;;;;;5044998;28;20977;-74
2023/06/22 04:05:01;;;;;;;25.23;10.00;;;20.30;99.90;;;;;;5049512;28;20849;-75
2023/06/22 04:07:46;;;;;;;12.23;8.90;;;20.20;99.90;;;;;;5051786;28;20448;-75
2023/06/22 04:10:32;;;;;;;11.17;10.07;;;20.30;99.90;;;;;;5056057;28;20443;-74
2023/06/22 04:13:17;;;;;;;11.13;9.93;;;20.20;99.90;;;;;;5046675;28;20443;-76
2023/06/22 04:16:05;;;;;;;11.03;9.90;;;20.20;99.90;;;;;;5046550;28;20485;-75
2023/06/22 04:18:50;;;;;;;13.40;10.03;;;20.10;99.90;;;;;;5048551;28;20438;-75
2023/06/22 04:21:37;;;;;;;12.93;10.13;;;20.10;99.90;;;;;;5045973;28;20510;-75
2023/06/22 04:24:22;;;;;;;13.43;10.00;;;20.20;99.90;;;;;;5046485;28;20858;-75
2023/06/22 04:27:07;;;;;;;13.40;10.53;;;20.10;99.90;;;;;;5052712;28;20433;-75
2023/06/22 04:29:53;;;;;;;19.33;10.07;;;20.20;99.90;;;;;;5047139;28;20462;-73
2023/06/22 04:32:40;;;;;;;12.00;10.50;;;20.00;99.90;;;;;;5045855;28;20422;-74
2023/06/22 04:35:26;;;;;;;11.37;10.27;;;20.00;99.90;;;;;;5046969;28;20602;-73
2023/06/22 04:38:13;;;;;;;11.27;10.17;;;20.20;99.90;;;;;;5049788;28;20484;-74
2023/06/22 04:41:01;;;;;;;14.47;11.30;;;20.30;99.90;;;;;;5052508;28;20443;-75
2023/06/22 04:43:53;;;;;;;11.90;9.57;;;20.40;99.90;;;;;;5053273;28;20494;-75
2023/06/22 04:46:40;;;;;;;12.80;10.60;;;20.50;99.90;;;;;;5044387;28;20429;-73
2023/06/22 04:49:32;;;;;;;11.80;10.10;;;20.50;99.90;;;;;;5047214;28;20448;-74
2023/06/22 04:52:20;;;;;;;10.67;9.57;;;20.50;99.90;;;;;;5043479;28;20448;-75
2023/06/22 04:55:06;;;;;;;12.77;9.73;;;20.60;99.90;;;;;;5050601;28;20471;-72
2023/06/22 04:57:52;;;;;;;12.63;10.47;;;20.60;99.90;;;;;;5043317;28;20466;-72
2023/06/22 05:00:37;;;;;;;13.53;10.27;;;20.50;99.90;;;;;;5051575;28;20451;-75
2023/06/22 05:03:25;;;;;;;14.20;8.90;;;20.60;99.90;;;;;;5046841;28;20467;-75
2023/06/22 05:06:13;;;;;;;14.90;10.67;;;20.70;99.90;;;;;;5046665;28;20436;-74
2023/06/22 05:08:58;;;;;;;11.57;10.40;;;20.70;99.90;;;;;;5055985;28;20412;-73
2023/06/22 05:11:43;;;;;;;12.90;10.40;;;20.70;99.90;;;;;;5044310;28;20490;-75
2023/06/22 05:14:29;;;;;;;11.07;9.90;;;20.80;99.90;;;;;;5038921;28;20465;-74
2023/06/22 05:17:19;;;;;;;13.87;9.90;;;20.90;99.90;;;;;;5045875;28;21671;-74
2023/06/22 05:20:06;;;;;;;14.63;10.20;;;20.90;99.90;;;;;;5047692;28;20449;-73
2023/06/22 05:22:52;;;;;;;17.33;10.00;;;21.00;99.90;;;;;;5046770;28;20443;-73
2023/06/22 05:25:38;;;;;;;11.10;9.00;;;21.10;99.90;;;;;;5045636;28;20839;-75
2023/06/22 05:28:23;;;;;;;15.47;10.43;;;21.20;99.90;;;;;;5038153;28;20455;-75
2023/06/22 05:31:09;;;;;;;11.50;10.37;;;21.40;99.90;;;;;;5042308;28;20495;-75
2023/06/22 05:33:56;;;;;;;12.37;9.77;;;21.50;99.90;;;;;;5031625;28;20440;-74
2023/06/22 05:36:43;;;;;;;11.27;9.30;;;21.60;99.90;;;;;;5044222;28;20452;-74
2023/06/22 05:39:30;;;;;;;11.00;8.97;;;21.70;99.90;;;;;;5041567;28;20419;-73
2023/06/22 05:42:15;;;;;;;12.00;9.30;;;21.60;99.90;;;;;;5051271;28;20447;-75
2023/06/22 05:45:01;;;;;;;11.53;9.83;;;21.70;99.90;;;;;;5045806;28;20608;-73
2023/06/22 05:47:46;;;;;;;14.60;9.70;;;21.90;99.90;;;;;;5052608;28;20523;-75
2023/06/22 05:50:32;;;;;;;10.13;9.13;;;22.00;99.90;;;;;;5048471;28;20438;-74
2023/06/22 05:53:18;;;;;;;11.20;8.60;;;22.20;99.90;;;;;;5045708;28;20440;-73
2023/06/22 05:56:05;;;;;;;16.67;9.87;;;22.30;99.90;;;;;;5045241;28;21130;-74
2023/06/22 05:58:50;;;;;;;11.40;10.17;;;22.40;99.90;;;;;;5042011;28;20526;-71
2023/06/22 06:01:35;;;;;;;10.70;8.90;;;22.50;99.90;;;;;;5047641;28;20521;-74
2023/06/22 06:04:21;;;;;;;9.93;8.93;;;22.60;99.90;;;;;;5053412;28;20479;-75
2023/06/22 06:07:07;;;;;;;10.27;7.77;;;22.70;99.90;;;;;;5052280;28;20823;-74
2023/06/22 06:09:53;;;;;;;10.17;8.70;;;22.80;99.90;;;;;;5037082;28;21237;-75
2023/06/22 06:12:40;;;;;;;11.50;9.20;;;23.00;99.90;;;;;;5052052;28;20518;-74
2023/06/22 06:15:25;;;;;;;11.27;9.50;;;23.10;99.90;;;;;;5050939;28;20443;-74
2023/06/22 06:18:11;;;;;;;10.40;8.40;;;23.20;99.90;;;;;;5049636;28;20952;-75
2023/06/22 06:20:57;;;;;;;13.23;8.87;;;23.30;99.90;;;;;;5048428;28;20826;-74
2023/06/22 06:23:42;;;;;;;15.50;8.20;;;23.40;99.90;;;;;;5055263;28;20613;-74
2023/06/22 06:26:29;;;;;;;14.13;9.03;;;23.60;99.90;;;;;;5050190;28;20443;-72
2023/06/22 06:29:17;;;;;;;9.67;8.27;;;23.70;99.90;;;;;;5049626;28;20411;-73
2023/06/22 06:32:05;;;;;;;11.03;9.27;;;23.80;99.90;;;;;;5051356;28;20444;-75
2023/06/22 06:34:50;;;;;;;10.03;8.73;;;23.90;99.90;;;;;;5056417;28;20504;-75
2023/06/22 06:37:37;;;;;;;11.20;9.07;;;24.00;99.90;;;;;;5048931;28;20446;-75
2023/06/22 06:40:23;;;;;;;11.40;9.40;;;24.00;99.90;;;;;;5050405;28;20451;-75
2023/06/22 06:43:08;;;;;;;11.27;8.87;;;24.10;99.90;;;;;;5047986;28;20440;-75
2023/06/22 06:45:55;;;;;;;10.20;9.20;;;24.30;99.90;;;;;;5043861;28;20487;-75
2023/06/22 06:48:41;;;;;;;10.03;8.40;;;24.40;99.90;;;;;;5051531;28;20452;-75
2023/06/22 06:51:26;;;;;;;9.53;8.13;;;24.40;99.90;;;;;;5044690;28;20807;-76
2023/06/22 06:54:12;;;;;;;11.20;10.10;;;24.50;99.90;;;;;;5045645;28;20520;-74
2023/06/22 06:56:57;;;;;;;12.20;8.50;;;24.60;99.90;;;;;;5048250;28;20442;-75
2023/06/22 06:59:43;;;;;;;12.23;8.30;;;24.60;99.90;;;;;;5050810;28;20902;-74
2023/06/22 07:02:30;;;;;;;10.53;8.47;;;24.70;99.90;;;;;;5047867;28;20969;-74
2023/06/22 07:05:15;;;;;;;12.07;9.13;;;24.80;99.90;;;;;;5043943;28;20479;-74
2023/06/22 07:08:01;;;;;;;14.63;8.30;;;24.80;99.90;;;;;;5057157;28;20448;-74
2023/06/22 07:10:47;;;;;;;10.43;8.83;;;25.00;99.90;;;;;;5045584;28;20534;-74
2023/06/22 07:13:33;;;;;;;9.83;8.83;;;25.00;99.90;;;;;;5048380;28;20518;-74
2023/06/22 07:16:18;;;;;;;12.83;8.70;;;25.10;99.90;;;;;;5048865;28;21010;-74
2023/06/22 07:19:05;;;;;;;11.10;8.67;;;25.20;99.90;;;;;;5049871;28;20448;-74
2023/06/22 07:21:51;;;;;;;10.40;9.30;;;25.30;99.90;;;;;;5044701;28;20471;-74
2023/06/22 07:24:36;;;;;;;12.33;9.10;;;25.40;99.90;;;;;;5045609;28;20518;-73
2023/06/22 07:27:22;;;;;;;10.80;8.77;;;25.40;99.90;;;;;;5045381;28;20422;-74
2023/06/22 07:30:08;;;;;;;10.67;8.20;;;25.40;99.90;;;;;;5047251;28;20452;-74
2023/06/22 07:32:53;;;;;;;10.30;7.77;;;25.50;99.90;;;;;;5048444;28;20440;-74
2023/06/22 07:35:40;;;;;;;15.57;8.43;;;25.50;99.90;;;;;;5044706;28;20538;-74
2023/06/22 07:38:26;;;;;;;12.20;8.30;;;25.50;99.90;;;;;;5043468;28;20436;-74
2023/06/22 07:41:11;;;;;;;11.00;7.60;;;25.60;99.90;;;;;;5048489;28;20451;-74
2023/06/22 07:43:57;;;;;;;9.67;8.77;;;25.60;99.90;;;;;;5037535;28;20505;-73
2023/06/22 07:46:42;;;;;;;11.27;8.10;;;25.70;99.90;;;;;;5033697;28;20539;-74
2023/06/22 07:49:29;;;;;;;15.80;8.63;;;25.70;99.90;;;;;;5033613;28;20485;-74
2023/06/22 07:52:16;;;;;;;13.07;8.20;;;25.80;99.90;;;;;;5033599;28;20547;-74
2023/06/22 07:55:02;;;;;;;9.03;8.13;;;25.80;99.90;;;;;;5033247;28;20466;-74
2023/06/22 07:57:51;;;;;;;7.50;6.80;;;25.90;99.90;;;;;;5034331;28;20469;-74
2023/06/22 08:00:37;;;;;;;9.60;8.60;;;26.00;99.90;;;;;;5050541;28;20453;-74
2023/06/22 08:03:22;;;;;;;9.57;8.30;;;26.00;99.90;;;;;;5037076;28;20440;-74
2023/06/22 08:06:09;;;;;;;11.00;8.07;;;26.10;99.90;;;;;;5043637;28;20476;-74
2023/06/22 08:08:56;;;;;;;11.00;7.73;;;26.10;99.90;;;;;;5033527;28;20657;-74
2023/06/22 08:11:42;;;;;;;11.33;8.40;;;26.20;99.90;;;;;;5033113;28;21088;-74
2023/06/22 08:14:28;;;;;;;10.60;7.70;;;26.20;99.90;;;;;;5034415;28;20472;-74
2023/06/22 08:17:14;;;;;;;10.40;7.00;;;26.20;99.90;;;;;;5040816;28;20529;-73
2023/06/22 08:19:59;;;;;;;9.00;7.33;;;26.30;99.90;;;;;;5054311;28;20457;-74
2023/06/22 08:22:45;;;;;;;8.80;7.33;;;26.30;99.90;;;;;;5039197;28;20454;-74
2023/06/22 08:25:32;;;;;;;10.67;7.43;;;26.40;99.90;;;;;;5031740;28;20478;-73
2023/06/22 08:28:18;;;;;;;8.33;6.53;;;26.40;99.90;;;;;;5034396;28;20811;-74
2023/06/22 08:31:04;;;;;;;9.97;7.30;;;26.50;99.90;;;;;;5030801;28;20778;-74
2023/06/22 08:33:49;;;;;;;10.13;7.43;;;26.50;99.90;;;;;;5042164;28;20466;-73
2023/06/22 08:36:41;;;;;;;10.40;7.80;;;26.60;99.90;;;;;;5036081;28;20442;-74
2023/06/22 08:39:27;;;;;;;8.17;7.37;;;26.70;99.90;;;;;;5045969;28;20498;-73
2023/06/22 08:42:14;;;;;;;8.73;7.43;;;26.80;99.90;;;;;;5046797;28;20458;-74
2023/06/22 08:45:01;;;;;;;10.00;8.00;;;26.80;99.90;;;;;;5048959;28;20475;-74
2023/06/22 08:47:46;;;;;;;14.10;7.23;;;26.90;99.90;;;;;;5032092;28;20444;-74
2023/06/22 08:50:32;;;;;;;9.97;7.77;;;27.00;99.90;;;;;;5036917;28;20501;-74
2023/06/22 08:53:17;;;;;;;7.77;6.97;;;27.10;99.90;;;;;;5047339;28;20443;-74
2023/06/22 08:56:03;;;;;;;12.10;7.90;;;27.10;99.90;;;;;;5048747;28;20447;-74
2023/06/22 08:58:50;;;;;;;11.17;8.07;;;27.20;99.90;;;;;;5045595;28;20450;-74
2023/06/22 09:01:35;;;;;;;10.23;7.57;;;27.20;99.90;;;;;;5046022;28;20449;-73
2023/06/22 09:04:21;;;;;;;12.33;7.03;;;27.30;99.90;;;;;;5042218;28;20507;-73
2023/06/22 09:07:07;;;;;;;10.70;7.27;;;27.40;99.90;;;;;;5036743;28;20480;-73
2023/06/22 09:09:52;;;;;;;9.90;6.87;;;27.50;99.90;;;;;;5048776;28;20509;-73
2023/06/22 09:12:38;;;;;;;10.67;6.70;;;27.60;99.90;;;;;;5043924;28;20955;-73
2023/06/22 09:15:24;;;;;;;10.60;7.03;;;27.50;99.90;;;;;;5039420;28;20463;-74
2023/06/22 09:18:11;;;;;;;12.33;8.17;;;27.60;99.90;;;;;;5047712;28;20450;-73
2023/06/22 09:20:57;;;;;;;13.30;7.30;;;27.70;99.90;;;;;;5046416;28;20552;-73
2023/06/22 09:23:42;;;;;;;13.53;7.10;;;27.70;99.90;;;;;;5047526;28;20497;-73
2023/06/22 09:26:28;;;;;;;10.13;7.23;;;27.80;99.90;;;;;;5042318;28;20479;-73
2023/06/22 09:29:13;;;;;;;11.37;7.37;;;27.90;99.90;;;;;;5047271;28;20473;-73
2023/06/22 09:32:00;;;;;;;10.43;7.00;;;27.90;99.90;;;;;;5042912;28;22704;-74
2023/06/22 09:34:46;;;;;;;9.20;6.90;;;28.00;99.90;;;;;;5045365;28;20482;-73
2023/06/22 09:37:32;;;;;;;9.13;6.80;;;28.10;99.90;;;;;;5040741;28;20439;-73
2023/06/22 09:40:17;;;;;;;12.87;6.30;;;28.10;99.90;;;;;;5043162;28;20515;-74
2023/06/22 09:43:03;;;;;;;14.43;7.10;;;28.30;99.90;;;;;;5046538;28;20570;-74
2023/06/22 09:45:49;;;;;;;12.40;6.40;;;28.40;99.90;;;;;;5050508;28;20850;-74
2023/06/22 09:48:35;;;;;;;20.93;6.17;;;28.50;99.90;;;;;;5038062;28;20808;-74
2023/06/22 09:51:23;;;;;;;15.83;7.87;;;28.60;99.90;;;;;;5046374;28;20524;-73
2023/06/22 09:54:09;;;;;;;11.87;6.50;;;28.70;97.90;;;;;;5047789;28;20474;-73
2023/06/22 09:56:54;;;;;;;8.60;6.73;;;28.80;99.90;;;;;;5046119;28;20578;-74
2023/06/22 09:59:40;;;;;;;10.20;6.67;;;28.90;88.80;;;;;;5036919;28;20453;-74
2023/06/22 10:02:26;;;;;;;7.47;6.00;;;29.00;92.00;;;;;;5031152;28;20475;-74
2023/06/22 10:05:13;;;;;;;10.00;7.00;;;29.00;94.50;;;;;;5041110;28;20964;-74
2023/06/22 10:07:58;;;;;;;8.47;6.23;;;29.10;94.10;;;;;;5031143;28;20440;-74
2023/06/22 10:10:44;;;;;;;12.17;6.83;;;29.20;88.50;;;;;;5037995;28;20448;-74
2023/06/22 10:13:29;;;;;;;13.20;6.90;;;29.20;84.50;;;;;;5042201;28;20561;-73
2023/06/22 10:16:15;;;;;;;13.33;6.47;;;29.20;90.00;;;;;;5040128;28;20593;-74
2023/06/22 10:19:00;;;;;;;11.83;6.47;;;29.30;89.30;;;;;;5045919;28;21138;-74
2023/06/22 10:21:47;;;;;;;9.03;6.53;;;29.40;86.00;;;;;;5046763;28;21366;-74
2023/06/22 10:24:33;;;;;;;13.67;7.17;;;29.40;77.80;;;;;;5046902;28;20487;-74
2023/06/22 10:27:18;;;;;;;10.50;6.67;;;29.50;74.70;;;;;;5035518;28;20587;-74
2023/06/22 10:30:05;;;;;;;12.37;6.87;;;29.60;80.40;;;;;;5029514;28;20419;-74
2023/06/22 10:32:50;;;;;;;9.23;6.87;;;29.60;80.30;;;;;;5031584;28;20444;-74
2023/06/22 10:35:37;;;;;;;12.73;6.83;;;29.60;76.50;;;;;;5037816;28;20445;-74
2023/06/22 10:38:24;;;;;;;13.50;7.27;;;29.50;72.80;;;;;;5042359;28;20559;-74
2023/06/22 10:41:09;;;;;;;13.90;7.70;;;29.40;74.50;;;;;;5034942;28;20501;-74
2023/06/22 10:43:55;;;;;;;11.60;6.80;;;29.40;84.20;;;;;;5050505;28;20534;-74
2023/06/22 10:46:40;;;;;;;8.40;6.67;;;29.40;80.50;;;;;;5041787;28;20467;-74
2023/06/22 10:49:26;;;;;;;13.03;6.30;;;29.40;77.30;;;;;;5054115;28;20483;-74
2023/06/22 10:52:12;;;;;;;11.60;7.47;;;29.40;81.40;;;;;;5039432;28;20451;-74
2023/06/22 10:54:59;;;;;;;11.40;6.77;;;29.40;80.50;;;;;;5034093;28;21000;-74
2023/06/22 10:57:46;;;;;;;10.97;6.93;;;29.40;78.60;;;;;;5050957;28;20455;-74
2023/06/22 11:00:31;;;;;;;13.43;6.70;;;29.30;73.20;;;;;;5052788;28;20434;-74
2023/06/22 11:03:17;;;;;;;14.00;7.33;;;29.30;74.40;;;;;;5036051;28;20508;-74
2023/06/22 11:06:03;;;;;;;12.20;6.70;;;29.40;78.50;;;;;;5047743;28;20472;-74
2023/06/22 11:08:48;;;;;;;15.97;7.10;;;29.50;79.20;;;;;;5033324;28;20421;-74
2023/06/22 11:11:35;;;;;;;11.30;6.43;;;29.80;83.80;;;;;;5033778;28;20461;-74
2023/06/22 11:14:22;;;;;;;8.67;6.20;;;30.00;74.10;;;;;;5035441;28;20526;-74
2023/06/22 11:17:07;;;;;;;9.90;6.70;;;30.10;70.00;;;;;;5034280;28;20599;-74
2023/06/22 11:19:52;;;;;;;9.60;6.33;;;30.20;73.60;;;;;;5033335;28;20513;-74
2023/06/22 11:22:39;;;;;;;9.47;6.50;;;30.30;71.90;;;;;;5042526;28;20982;-74
2023/06/22 11:25:24;;;;;;;11.97;7.27;;;30.40;68.40;;;;;;5044537;28;20554;-73
2023/06/22 11:28:11;;;;;;;13.73;7.90;;;30.30;68.00;;;;;;5049098;28;20447;-75
2023/06/22 11:30:56;;;;;;;12.87;7.60;;;30.20;70.30;;;;;;5046926;28;20460;-75
2023/06/22 11:33:42;;;;;;;11.73;8.17;;;30.20;68.60;;;;;;5053468;28;20461;-74
2023/06/22 11:36:29;;;;;;;9.77;7.20;;;30.20;72.20;;;;;;5037740;28;20483;-74
2023/06/22 11:39:14;;;;;;;11.97;6.73;;;30.20;70.30;;;;;;5041911;28;20440;-75
2023/06/22 11:42:00;;;;;;;12.20;6.57;;;30.20;68.90;;;;;;5037920;28;20800;-75
2023/06/22 11:44:47;;;;;;;12.57;6.87;;;30.10;69.20;;;;;;5049015;28;20459;-75
2023/06/22 11:47:32;;;;;;;11.67;6.90;;;30.10;68.80;;;;;;5050005;28;20953;-75
2023/06/22 11:50:18;;;;;;;9.73;6.60;;;30.10;74.30;;;;;;5055181;28;20543;-74
2023/06/22 11:53:03;;;;;;;25.77;7.30;;;30.10;73.20;;;;;;5048386;28;20556;-75
2023/06/22 11:55:49;;;;;;;13.77;6.90;;;30.00;72.80;;;;;;5048590;28;21537;-75
2023/06/22 11:58:35;;;;;;;10.90;6.33;;;30.00;69.60;;;;;;5046717;28;20488;-74
2023/06/22 12:01:21;;;;;;;10.97;7.20;;;30.10;74.30;;;;;;5049794;28;20440;-74
2023/06/22 12:04:07;;;;;;;8.03;6.63;;;30.20;75.80;;;;;;5049989;28;20955;-75
2023/06/22 12:06:52;;;;;;;12.63;7.87;;;30.20;72.80;;;;;;5051407;28;20483;-74
2023/06/22 12:09:38;;;;;;;17.47;8.43;;;30.20;74.50;;;;;;5046445;28;21004;-74
2023/06/22 12:12:23;;;;;;;10.30;6.97;;;30.10;72.20;;;;;;5045399;28;20456;-75
2023/06/22 12:15:11;;;;;;;10.43;7.00;;;30.20;76.80;;;;;;5048101;28;20459;-74
2023/06/22 12:17:58;;;;;;;12.90;7.10;;;30.20;68.20;;;;;;5047745;28;20961;-75
2023/06/22 12:20:44;;;;;;;12.20;7.10;;;30.10;66.80;;;;;;5049640;28;20441;-75
2023/06/22 12:23:30;;;;;;;11.00;7.10;;;30.00;66.30;;;;;;5051615;28;21012;-74
2023/06/22 12:26:15;;;;;;;14.13;6.60;;;30.00;68.20;;;;;;5049768;28;20867;-74
2023/06/22 12:29:01;;;;;;;13.30;7.10;;;30.00;68.90;;;;;;5048631;28;20440;-74
2023/06/22 12:31:46;;;;;;;8.70;6.30;;;30.00;68.80;;;;;;5049378;28;20451;-74
2023/06/22 12:34:33;;;;;;;11.30;6.23;;;30.10;69.10;;;;;;5051617;28;20614;-74
2023/06/22 12:37:19;;;;;;;13.80;7.13;;;30.10;62.00;;;;;;5048729;28;20439;-74
2023/06/22 12:40:06;;;;;;;17.47;7.67;;;30.10;59.50;;;;;;5048433;28;20556;-74
2023/06/22 12:42:51;;;;;;;10.50;5.97;;;30.00;59.80;;;;;;5048641;28;22439;-74
2023/06/22 12:45:37;;;;;;;18.73;7.00;;;30.00;63.50;;;;;;5051141;28;20455;-74
2023/06/22 12:48:23;;;;;;;14.23;7.57;;;30.10;69.70;;;;;;5043045;28;20440;-74
2023/06/22 12:51:09;;;;;;;11.30;6.47;;;30.40;72.30;;;;;;5049606;28;20458;-74
2023/06/22 12:53:55;;;;;;;14.93;6.80;;;30.50;72.40;;;;;;5049371;28;20472;-74
2023/06/22 12:56:43;;;;;;;8.50;6.50;;;30.70;66.10;;;;;;5052506;28;20443;-74
2023/06/22 12:59:29;;;;;;;14.80;6.60;;;30.80;66.60;;;;;;5046451;28;20524;-74
2023/06/22 13:02:14;;;;;;;11.80;7.30;;;30.90;58.30;;;;;;5047494;28;20452;-74
2023/06/22 13:05:00;;;;;;;13.13;6.77;;;30.80;59.10;;;;;;5047563;28;20469;-74
2023/06/22 13:07:47;;;;;;;10.27;6.50;;;30.80;57.70;;;;;;5045605;28;20479;-74
2023/06/22 13:10:32;;;;;;;11.70;6.47;;;30.70;52.50;;;;;;5042863;28;20555;-74
2023/06/22 13:13:18;;;;;;;11.70;6.30;;;30.70;59.90;;;;;;5049287;28;20964;-74
2023/06/22 13:16:03;;;;;;;14.53;6.30;;;30.50;55.90;;;;;;5045800;28;20568;-74
2023/06/22 13:18:49;;;;;;;15.43;6.20;;;30.40;56.00;;;;;;5049579;28;20509;-74
2023/06/22 13:21:34;;;;;;;17.17;6.20;;;30.30;56.30;;;;;;5045894;28;20447;-74
2023/06/22 13:24:21;;;;;;;12.80;6.60;;;30.20;56.00;;;;;;5050401;28;20474;-74
2023/06/22 13:27:07;;;;;;;13.90;6.03;;;30.10;65.90;;;;;;5046405;28;20472;-74
2023/06/22 13:29:53;;;;;;;9.73;5.83;;;30.10;62.10;;;;;;5051389;28;20456;-74
2023/06/22 13:32:41;;;;;;;11.23;5.63;;;30.10;58.90;;;;;;5045716;28;20464;-74
2023/06/22 13:35:26;;;;;;;11.13;6.10;;;30.30;62.20;;;;;;5048063;28;20476;-74
2023/06/22 13:38:12;;;;;;;13.10;5.57;;;30.70;57.80;;;;;;5050043;28;20515;-74
2023/06/22 13:40:59;;;;;;;9.30;5.43;;;31.00;58.40;;;;;;5047553;28;20452;-75
2023/06/22 13:43:44;;;;;;;10.80;6.10;;;31.30;43.90;;;;;;5048270;28;20571;-74
2023/06/22 13:46:30;;;;;;;15.13;5.60;;;31.60;43.20;;;;;;5047542;28;20560;-74
2023/06/22 13:49:15;;;;;;;14.07;6.70;;;31.80;42.50;;;;;;5052860;28;20437;-74
2023/06/22 13:52:03;;;;;;;16.53;5.90;;;32.00;41.00;;;;;;5045223;28;20443;-74
2023/06/22 13:54:48;;;;;;;14.40;6.03;;;32.00;41.90;;;;;;5046369;28;20493;-74
2023/06/22 13:57:35;;;;;;;13.60;6.37;;;32.10;42.30;;;;;;5049785;28;20509;-74
2023/06/22 14:00:21;;;;;;;15.10;6.77;;;31.90;41.40;;;;;;5044046;28;20436;-74
2023/06/22 14:03:06;;;;;;;12.33;6.33;;;31.90;47.40;;;;;;5047160;28;20445;-74
2023/06/22 14:05:54;;;;;;;12.70;6.47;;;31.60;45.80;;;;;;5046830;28;20581;-74
2023/06/22 14:08:39;;;;;;;13.10;6.60;;;31.40;49.80;;;;;;5049251;28;20465;-74
2023/06/22 14:11:25;;;;;;;11.97;5.63;;;31.30;55.50;;;;;;5038194;28;20450;-74
2023/06/22 14:14:12;;;;;;;10.57;6.17;;;31.30;50.10;;;;;;5045904;28;20465;-74